Time;durP1;ratioP1;P1;durP2;ratioP2;P2;SDS_P1;SDS_P2;PMS_P1;PMS_P2;Temp;Humidity;BMP_temperature;BMP_pressure;BME280_temperature;BME280_humidity;BME280_pressure;Samples;Min_cycle;Max_cycle;Signal;HPM_P1;HPM_P2
2023/05/10 00:01:42;;;;;;;0.50;0.50;;;;;;;12.80;99.05;94998.00;6156193;23;20210;-86
2023/05/10 00:04:07;;;;;;;0.37;0.37;;;;;;;12.68;99.37;95001.00;6132441;23;20150;-85
2023/05/10 00:06:36;;;;;;;0.40;0.40;;;;;;;12.64;100.00;95002.34;6155747;23;20489;-86
2023/05/10 00:09:01;;;;;;;2.97;0.60;;;;;;;12.72;99.93;95001.47;6156002;23;20596;-85
2023/05/10 00:11:29;;;;;;;0.40;0.40;;;;;;;12.77;99.37;94997.34;6156059;23;20151;-86
2023/05/10 00:13:55;;;;;;;0.40;0.40;;;;;;;12.62;99.29;94998.28;6156099;23;20151;-86
2023/05/10 00:16:23;;;;;;;0.97;0.50;;;;;;;12.60;99.32;94997.66;6155916;23;20228;-86
2023/05/10 00:18:48;;;;;;;0.77;0.50;;;;;;;12.52;99.37;94995.91;6156236;23;20162;-85
2023/05/10 00:21:16;;;;;;;0.50;0.50;;;;;;;12.72;98.34;94993.66;6156798;23;20634;-85
2023/05/10 00:23:42;;;;;;;0.50;0.40;;;;;;;12.72;98.65;95002.28;6131263;23;20158;-84
2023/05/10 00:26:09;;;;;;;1.70;0.50;;;;;;;12.82;98.54;94988.22;6155339;23;20253;-86
2023/05/10 00:28:35;;;;;;;1.30;0.60;;;;;;;12.62;99.29;94985.25;6156587;23;20151;-85
2023/05/10 00:31:02;;;;;;;0.60;0.60;;;;;;;12.82;98.67;94991.63;6156023;23;20174;-85
2023/05/10 00:33:33;;;;;;;0.70;0.70;;;;;;;12.63;99.37;94990.31;6132717;23;20163;-84
2023/05/10 00:36:00;;;;;;;0.60;0.60;;;;;;;12.59;100.00;94990.81;6155513;23;20170;-85
2023/05/10 00:38:26;;;;;;;0.60;0.60;;;;;;;12.62;99.82;94988.66;6182398;23;20182;-84
2023/05/10 00:40:54;;;;;;;0.93;0.70;;;;;;;12.61;100.00;95012.28;6158081;23;20178;-84
2023/05/10 00:43:19;;;;;;;0.60;0.60;;;;;;;12.63;100.00;95000.75;6163166;23;20224;-85
2023/05/10 00:45:50;;;;;;;0.83;0.83;;;;;;;12.67;99.94;95009.81;6187885;23;20150;-85
2023/05/10 00:48:20;;;;;;;1.80;1.70;;;;;;;12.70;99.39;95004.25;6162922;23;20162;-86
2023/05/10 00:50:53;;;;;;;0.70;0.70;;;;;;;12.65;100.00;95006.56;6161863;23;20192;-86
2023/05/10 00:53:30;;;;;;;0.90;0.90;;;;;;;12.67;100.00;95004.59;6187413;23;20237;-86
2023/05/10 00:56:01;;;;;;;0.90;0.70;;;;;;;12.55;100.00;95007.78;6186121;23;20149;-86
2023/05/10 00:58:35;;;;;;;1.00;0.80;;;;;;;12.46;100.00;95007.03;6163610;23;20592;-85
2023/05/10 01:01:16;;;;;;;1.17;0.77;;;;;;;12.59;100.00;95012.47;6187754;23;20178;-86
2023/05/10 01:03:58;;;;;;;2.70;1.13;;;;;;;12.56;100.00;95012.81;6189286;23;20146;-86
2023/05/10 01:06:32;;;;;;;2.27;1.17;;;;;;;12.59;100.00;95001.25;6163418;23;20170;-84
2023/05/10 01:09:07;;;;;;;0.80;0.80;;;;;;;12.50;100.00;95007.50;6188895;23;20221;-86
2023/05/10 01:11:46;;;;;;;1.00;1.00;;;;;;;12.61;99.49;95009.69;6189083;23;20156;-84
2023/05/10 01:14:25;;;;;;;0.97;0.97;;;;;;;12.54;99.88;95017.38;6163696;23;20158;-86
2023/05/10 01:16:59;;;;;;;2.90;1.07;;;;;;;12.58;99.38;95016.06;6162976;23;20154;-85
2023/05/10 01:19:34;;;;;;;4.07;1.00;;;;;;;12.68;98.34;95014.03;6164202;23;20186;-83
2023/05/10 01:22:36;;;;;;;1.47;1.00;;;;;;;12.62;98.94;95019.94;6190467;23;20609;-84
2023/05/10 01:25:14;;;;;;;1.20;1.10;;;;;;;12.60;99.11;95019.28;6187840;23;20192;-85
2023/05/10 01:28:11;;;;;;;0.90;0.90;;;;;;;12.45;99.02;95019.22;6188144;23;20154;-85
2023/05/10 01:31:07;;;;;;;1.17;1.00;;;;;;;12.45;99.12;95019.22;6068888;23;20192;-84
2023/05/10 01:34:02;;;;;;;2.00;1.20;;;;;;;12.38;99.29;95015.69;6067399;23;20161;-84
2023/05/10 01:36:44;;;;;;;2.33;1.40;;;;;;;12.42;99.10;95013.53;6068110;23;20240;-84
2023/05/10 01:39:16;;;;;;;1.30;1.20;;;;;;;12.48;98.54;95018.06;6069144;23;20664;-84
2023/05/10 01:42:03;;;;;;;1.40;1.13;;;;;;;12.40;98.66;95018.13;6044377;23;20235;-84
2023/05/10 01:45:00;;;;;;;2.00;1.70;;;;;;;12.22;99.68;95009.75;6069096;23;20572;-84
2023/05/10 01:47:41;;;;;;;1.93;1.30;;;;;;;12.35;99.60;95010.81;6067367;23;20191;-84
2023/05/10 01:50:12;;;;;;;2.73;1.60;;;;;;;12.30;100.00;95018.34;6045317;23;20211;-84
2023/05/10 01:52:41;;;;;;;2.33;1.50;;;;;;;12.42;99.74;95022.16;6068515;23;20161;-86
2023/05/10 01:55:15;;;;;;;2.00;1.90;;;;;;;12.33;99.89;95017.19;6043889;23;20171;-85
2023/05/10 01:57:44;;;;;;;2.90;2.10;;;;;;;12.39;99.35;95027.72;6044293;23;20188;-84
2023/05/10 02:00:13;;;;;;;2.33;2.03;;;;;;;12.46;98.99;95022.66;6045465;23;20180;-86
2023/05/10 02:02:41;;;;;;;2.20;2.10;;;;;;;12.51;98.66;95025.53;6046822;23;20533;-86
2023/05/10 02:05:12;;;;;;;2.57;2.37;;;;;;;12.41;99.27;95017.94;6044807;23;20547;-86
2023/05/10 02:07:40;;;;;;;2.00;1.90;;;;;;;12.43;99.09;95031.59;6112463;23;20189;-86
2023/05/10 02:10:19;;;;;;;2.20;2.00;;;;;;;12.38;98.81;95030.50;6208907;23;20194;-84
2023/05/10 02:12:52;;;;;;;2.17;1.97;;;;;;;12.39;99.16;95032.94;6167080;23;20139;-86
2023/05/10 02:15:23;;;;;;;3.00;2.37;;;;;;;12.42;98.67;95039.59;6158749;23;20146;-86
2023/05/10 02:17:48;;;;;;;2.60;2.40;;;;;;;12.53;98.40;95038.38;6133164;23;20155;-85
2023/05/10 02:20:19;;;;;;;2.23;2.13;;;;;;;12.44;98.72;95032.41;6134179;23;20189;-84
2023/05/10 02:22:53;;;;;;;2.50;2.37;;;;;;;12.56;97.92;95038.88;6158937;23;20245;-86
2023/05/10 02:25:20;;;;;;;2.73;2.47;;;;;;;12.46;98.50;95043.50;6158870;23;20161;-86
2023/05/10 02:27:48;;;;;;;2.70;2.50;;;;;;;12.54;98.22;95046.03;6157097;23;20542;-86
2023/05/10 02:30:14;;;;;;;3.33;2.43;;;;;;;12.52;98.42;95049.78;6183730;23;20188;-86
2023/05/10 02:32:43;;;;;;;4.67;2.63;;;;;;;12.55;98.17;95046.84;6132524;23;20174;-86
2023/05/10 02:35:17;;;;;;;2.47;2.33;;;;;;;12.62;97.46;95052.97;6157654;23;20183;-86
2023/05/10 02:37:43;;;;;;;2.93;2.73;;;;;;;12.55;97.82;95052.06;6133296;23;20158;-84
2023/05/10 02:40:10;;;;;;;2.80;2.60;;;;;;;12.49;98.37;95056.16;6157169;23;20265;-84
2023/05/10 02:42:38;;;;;;;3.20;2.63;;;;;;;12.58;98.26;95056.94;6164411;23;20194;-87
2023/05/10 02:45:12;;;;;;;2.70;2.50;;;;;;;12.62;97.90;95058.19;6181957;23;20213;-85
2023/05/10 02:47:38;;;;;;;3.20;2.30;;;;;;;12.61;97.93;95054.78;6181017;23;20190;-85
2023/05/10 02:50:06;;;;;;;3.70;2.70;;;;;;;12.54;98.25;95063.44;6182634;23;20179;-85
2023/05/10 02:52:42;;;;;;;3.13;2.60;;;;;;;12.50;98.49;95064.78;6182534;23;20146;-85
2023/05/10 02:55:09;;;;;;;3.80;2.70;;;;;;;12.48;98.39;95052.75;6156918;23;20154;-85
2023/05/10 02:57:41;;;;;;;3.43;2.50;;;;;;;12.41;98.66;95056.19;6156281;23;20162;-85
2023/05/10 03:00:10;;;;;;;2.37;2.27;;;;;;;12.47;98.84;95052.91;6207126;23;20182;-86
2023/05/10 03:02:36;;;;;;;2.30;2.20;;;;;;;12.54;97.95;95055.63;6181285;23;20205;-85
2023/05/10 03:05:02;;;;;;;3.30;2.70;;;;;;;12.56;98.14;95056.28;6181611;23;20162;-85
2023/05/10 03:07:28;;;;;;;2.70;2.50;;;;;;;12.56;98.39;95066.72;6180989;23;20155;-85
2023/05/10 03:09:53;;;;;;;3.60;2.10;;;;;;;12.47;97.53;95063.34;6182200;23;20628;-85
2023/05/10 03:12:37;;;;;;;3.50;2.33;;;;;;;12.50;97.73;95065.59;6182945;23;20179;-86
2023/05/10 03:15:25;;;;;;;2.47;2.20;;;;;;;12.51;97.48;95064.59;6181894;23;20165;-86
2023/05/10 03:18:24;;;;;;;3.37;2.07;;;;;;;12.37;97.47;95070.56;6181471;23;20197;-85
2023/05/10 03:20:51;;;;;;;2.10;1.90;;;;;;;12.51;97.04;95076.81;6181688;23;20237;-86
2023/05/10 03:23:20;;;;;;;2.43;1.50;;;;;;;12.36;97.61;95081.91;6181586;23;20189;-85
2023/05/10 03:25:48;;;;;;;1.93;1.63;;;;;;;12.42;97.53;95068.22;6181286;23;20161;-85
2023/05/10 03:28:17;;;;;;;1.97;1.70;;;;;;;12.43;96.87;95070.66;6181401;23;20180;-86
2023/05/10 03:30:46;;;;;;;1.90;1.60;;;;;;;12.46;97.10;95079.94;6181275;23;20209;-85
2023/05/10 03:33:12;;;;;;;1.73;1.50;;;;;;;12.12;97.54;95078.47;6156217;23;20158;-86
2023/05/10 03:35:38;;;;;;;1.73;1.63;;;;;;;12.32;97.35;95078.84;6156857;23;20216;-85
2023/05/10 03:38:06;;;;;;;2.10;1.70;;;;;;;12.35;97.33;95077.69;6181092;23;20158;-85
2023/05/10 03:40:41;;;;;;;1.93;1.73;;;;;;;12.29;97.87;95088.81;6205909;23;20185;-85
2023/05/10 03:43:09;;;;;;;3.37;1.90;;;;;;;12.27;97.92;95082.94;6182550;23;20201;-84
2023/05/10 03:45:34;;;;;;;2.20;2.00;;;;;;;12.34;97.13;95083.88;6181341;23;20540;-84
2023/05/10 03:47:59;;;;;;;3.80;2.00;;;;;;;12.37;97.34;95091.38;6180197;23;20157;-87
2023/05/10 03:50:26;;;;;;;1.77;1.60;;;;;;;12.20;97.79;95082.81;6181032;23;20209;-85
2023/05/10 03:52:51;;;;;;;3.03;1.90;;;;;;;12.26;97.76;95082.13;6156675;23;20155;-85
2023/05/10 03:55:16;;;;;;;2.27;1.67;;;;;;;12.38;97.36;95091.22;6181462;23;20169;-86
2023/05/10 03:57:42;;;;;;;2.10;1.90;;;;;;;12.28;97.27;95087.16;6180286;23;20262;-85
2023/05/10 04:00:08;;;;;;;1.80;1.70;;;;;;;12.40;96.71;95086.63;6206431;23;20182;-85
2023/05/10 04:02:33;;;;;;;1.83;1.70;;;;;;;12.40;96.48;95088.44;6155811;23;20640;-85
2023/05/10 04:04:59;;;;;;;2.00;1.83;;;;;;;12.40;96.57;95085.81;6205989;23;20147;-85
2023/05/10 04:07:24;;;;;;;4.80;1.80;;;;;;;12.40;96.35;95091.84;6180272;23;20185;-85
2023/05/10 04:09:52;;;;;;;2.20;2.00;;;;;;;12.47;96.53;95094.59;6182448;23;20178;-85
2023/05/10 04:12:17;;;;;;;3.37;1.77;;;;;;;12.35;96.90;95088.13;6181142;23;20217;-85
2023/05/10 04:14:42;;;;;;;3.33;2.37;;;;;;;12.43;96.72;95098.50;6180664;23;20155;-84
2023/05/10 04:17:13;;;;;;;3.37;2.43;;;;;;;12.50;96.17;95089.03;6180036;23;20172;-86
2023/05/10 04:19:38;;;;;;;2.37;1.87;;;;;;;12.42;96.52;95094.28;6156950;23;20197;-85
2023/05/10 04:22:04;;;;;;;2.07;1.87;;;;;;;12.34;96.60;95096.91;6206044;23;20194;-85
2023/05/10 04:24:37;;;;;;;3.17;2.17;;;;;;;12.47;96.65;95100.59;6181322;23;20158;-86
2023/05/10 04:27:03;;;;;;;3.00;2.20;;;;;;;12.41;96.08;95103.06;6204724;23;20158;-85
2023/05/10 04:29:28;;;;;;;2.23;2.03;;;;;;;12.47;96.61;95105.00;6180968;23;20178;-85
2023/05/10 04:31:59;;;;;;;2.13;1.90;;;;;;;12.53;96.26;95096.50;6182486;23;20476;-85
2023/05/10 04:34:38;;;;;;;2.40;2.20;;;;;;;12.43;96.54;95099.31;6184662;23;20143;-85
2023/05/10 04:37:07;;;;;;;4.23;2.00;;;;;;;12.49;96.16;95095.22;6182127;23;20176;-85
2023/05/10 04:39:35;;;;;;;3.40;2.30;;;;;;;12.50;96.16;95101.25;6157715;23;20192;-86
2023/05/10 04:42:07;;;;;;;2.50;2.30;;;;;;;12.46;96.86;95113.81;6183427;23;20186;-85
2023/05/10 04:44:32;;;;;;;3.63;2.63;;;;;;;12.51;95.96;95110.66;6183346;23;20138;-85
2023/05/10 04:47:02;;;;;;;2.57;2.37;;;;;;;12.57;96.29;95113.41;6179811;23;20242;-86
2023/05/10 04:50:04;;;;;;;3.33;2.50;;;;;;;12.62;96.36;95110.28;6156518;23;20174;-84
2023/05/10 04:56:03;;;;;;;3.43;2.40;;;;;;;12.71;95.89;95110.06;6181737;23;20155;-84
2023/05/10 05:01:32;;;;;;;3.20;2.50;;;;;;;12.72;95.72;95110.88;6061908;23;20169;-85
2023/05/10 05:04:33;;;;;;;4.10;2.90;;;;;;;12.85;95.37;95118.16;6014670;23;20161;-84
2023/05/10 05:07:14;;;;;;;3.20;2.47;;;;;;;12.80;95.39;95112.63;6040402;23;20181;-84
2023/05/10 05:10:34;;;;;;;3.90;2.70;;;;;;;12.51;96.22;95116.69;6037602;23;20192;-84
2023/05/10 05:13:22;;;;;;;4.07;2.30;;;;;;;12.66;95.68;95122.81;6061775;23;20588;-84
2023/05/10 05:19:34;;;;;;;6.70;3.10;;;;;;;12.68;95.35;95125.25;6061701;23;20188;-84
2023/05/10 05:22:30;;;;;;;;;;;;;;;;;;;;;
2023/05/10 05:25:22;;;;;;;3.80;3.00;;;;;;;12.80;95.23;95136.09;6038413;23;20240;-83
2023/05/10 05:28:32;;;;;;;4.63;3.10;;;;;;;12.98;94.81;95128.81;6038893;23;20157;-83
2023/05/10 05:32:08;;;;;;;3.40;2.70;;;;;;;13.00;94.15;95139.91;6063103;23;20527;-82
2023/05/10 05:35:24;;;;;;;3.23;2.90;;;;;;;12.94;94.75;95135.38;5972489;24;20164;-83
2023/05/10 05:38:30;;;;;;;3.20;2.70;;;;;;;12.82;94.56;95136.75;5971259;23;20172;-83
2023/05/10 05:40:58;;;;;;;6.70;2.67;;;;;;;12.99;94.28;95138.28;6052619;23;20181;-83
2023/05/10 05:43:26;;;;;;;2.70;2.50;;;;;;;12.94;93.83;95137.97;6063981;23;20301;-83
2023/05/10 05:46:00;;;;;;;4.53;2.43;;;;;;;12.98;93.87;95144.44;6040319;23;20231;-83
2023/05/10 05:48:41;;;;;;;2.53;2.33;;;;;;;13.01;92.70;95138.91;6064602;23;20607;-84
2023/05/10 05:51:06;;;;;;;2.83;2.20;;;;;;;13.05;91.14;95143.59;6064474;23;20260;-82
2023/05/10 05:53:31;;;;;;;3.20;2.30;;;;;;;13.29;90.84;95147.06;6064820;23;20161;-84
2023/05/10 05:55:58;;;;;;;3.93;2.10;;;;;;;13.27;89.72;95151.66;6072011;23;20164;-83
2023/05/10 05:58:26;;;;;;;2.40;2.20;;;;;;;13.31;90.17;95145.91;6068844;23;20175;-84
2023/05/10 06:00:57;;;;;;;3.10;2.10;;;;;;;13.38;89.50;95150.44;6045089;23;20192;-83
2023/05/10 06:03:23;;;;;;;1.70;1.60;;;;;;;13.36;88.41;95145.38;6064856;23;20188;-82
2023/05/10 06:05:48;;;;;;;2.70;1.80;;;;;;;13.45;87.41;95153.97;6143320;23;20635;-82
2023/05/10 06:08:16;;;;;;;1.50;1.40;;;;;;;13.13;87.12;95149.75;6180262;23;20163;-84
2023/05/10 06:10:41;;;;;;;1.50;1.37;;;;;;;13.26;87.10;95153.44;6156942;23;20215;-83
2023/05/10 06:13:07;;;;;;;1.20;1.20;;;;;;;13.32;86.49;95154.53;6182281;23;20147;-81
2023/05/10 06:15:32;;;;;;;1.50;1.40;;;;;;;13.36;86.77;95157.63;6182155;23;20161;-84
2023/05/10 06:17:57;;;;;;;2.20;1.43;;;;;;;13.54;86.02;95158.94;6206640;23;20205;-85
2023/05/10 06:20:23;;;;;;;2.57;1.50;;;;;;;13.61;85.75;95161.66;6183064;23;20241;-83
2023/05/10 06:22:48;;;;;;;1.60;1.50;;;;;;;13.89;85.61;95165.34;6181947;23;20179;-84
2023/05/10 06:25:14;;;;;;;1.20;1.10;;;;;;;13.87;84.47;95169.94;6181957;23;20170;-83
2023/05/10 06:27:39;;;;;;;3.80;1.03;;;;;;;13.87;84.01;95167.31;6182415;23;20157;-82
2023/05/10 06:30:06;;;;;;;2.93;1.47;;;;;;;14.16;83.80;95171.78;6208067;23;20250;-83
2023/05/10 06:32:31;;;;;;;1.90;1.03;;;;;;;14.02;81.61;95169.13;6181348;23;20175;-82
2023/05/10 06:34:56;;;;;;;2.73;1.77;;;;;;;14.32;81.79;95175.22;6182860;23;20154;-84
2023/05/10 06:37:22;;;;;;;2.00;1.00;;;;;;;14.62;81.17;95178.66;6155523;23;20178;-85
2023/05/10 06:39:47;;;;;;;1.10;1.10;;;;;;;14.57;78.49;95181.78;6157609;23;20178;-82
2023/05/10 06:42:18;;;;;;;1.13;1.03;;;;;;;14.65;78.97;95189.53;6161164;23;20190;-85
2023/05/10 06:44:43;;;;;;;1.10;1.00;;;;;;;15.07;77.74;95179.41;6183583;23;20261;-82
2023/05/10 06:47:09;;;;;;;1.87;0.80;;;;;;;15.15;76.22;95184.50;6181258;23;20609;-83
2023/05/10 06:49:34;;;;;;;1.33;1.10;;;;;;;15.41;76.25;95184.78;6183908;23;20675;-84
2023/05/10 06:52:00;;;;;;;2.13;0.90;;;;;;;15.32;76.03;95185.91;6185633;23;20226;-84
2023/05/10 06:54:27;;;;;;;1.23;1.07;;;;;;;15.34;75.82;95193.56;6182566;23;20155;-83
2023/05/10 06:56:59;;;;;;;1.85;0.80;;;;;;;15.04;74.87;95192.84;6177717;23;20853;-83
2023/05/10 06:59:24;;;;;;;0.80;0.80;;;;;;;14.87;75.28;95192.25;6156569;23;20185;-82
2023/05/10 07:01:50;;;;;;;1.00;0.80;;;;;;;15.07;76.31;95192.47;6156963;23;20179;-82
2023/05/10 07:04:15;;;;;;;0.90;0.90;;;;;;;15.14;76.08;95196.78;6214180;23;20173;-80
2023/05/10 07:06:40;;;;;;;1.50;0.80;;;;;;;14.72;75.46;95195.66;6209090;23;20146;-81
2023/05/10 07:09:07;;;;;;;0.70;0.70;;;;;;;14.66;75.12;95192.97;6210258;23;20153;-81
2023/05/10 07:11:37;;;;;;;5.27;0.87;;;;;;;14.66;75.22;95192.97;6160957;23;20155;-83
2023/05/10 07:14:11;;;;;;;0.80;0.80;;;;;;;14.72;75.64;95192.25;6207215;23;20608;-83
2023/05/10 07:16:37;;;;;;;0.70;0.70;;;;;;;15.00;73.62;95200.22;6204837;23;20165;-83
2023/05/10 07:19:02;;;;;;;0.80;0.80;;;;;;;14.98;75.36;95197.81;6156932;23;20163;-82
2023/05/10 07:21:28;;;;;;;1.03;0.70;;;;;;;14.68;73.98;95199.66;6182135;23;20151;-83
2023/05/10 07:23:54;;;;;;;1.33;0.80;;;;;;;14.80;74.32;95201.78;6181882;23;20290;-83
2023/05/10 07:26:20;;;;;;;2.00;0.63;;;;;;;14.56;74.80;95202.88;6156227;23;20482;-83
2023/05/10 07:28:46;;;;;;;1.10;0.80;;;;;;;14.91;74.77;95201.31;6183463;23;20184;-84
2023/05/10 07:31:11;;;;;;;1.63;0.70;;;;;;;14.96;74.76;95202.41;6157291;23;20202;-83
2023/05/10 07:33:39;;;;;;;0.70;0.67;;;;;;;15.11;73.30;95204.19;6181652;23;20185;-83
2023/05/10 07:36:10;;;;;;;2.17;0.60;;;;;;;15.28;73.55;95205.56;6181716;23;20591;-84
2023/05/10 07:38:35;;;;;;;0.93;0.70;;;;;;;15.30;72.65;95203.59;6182298;23;20599;-84
2023/05/10 07:41:06;;;;;;;0.70;0.70;;;;;;;15.29;72.49;95202.81;6184065;23;20170;-84
2023/05/10 07:43:31;;;;;;;0.70;0.70;;;;;;;15.45;71.94;95198.31;6184085;23;20178;-85
2023/05/10 07:45:57;;;;;;;4.57;0.80;;;;;;;15.74;71.28;95207.91;6183195;23;20647;-83
2023/05/10 07:48:23;;;;;;;2.00;0.80;;;;;;;16.14;71.23;95196.75;6183740;23;20177;-83
2023/05/10 07:50:48;;;;;;;2.30;0.85;;;;;;;16.26;69.88;95201.47;6183145;23;20603;-84
2023/05/10 07:53:18;;;;;;;0.70;0.70;;;;;;;16.30;69.10;95195.66;6182058;23;20177;-84
2023/05/10 07:55:43;;;;;;;1.08;0.85;;;;;;;16.20;67.46;95204.84;6181499;23;20249;-84
2023/05/10 07:58:09;;;;;;;1.42;0.55;;;;;;;15.83;68.71;95217.25;6215094;23;20201;-80
2023/05/10 08:00:34;;;;;;;0.50;0.50;;;;;;;15.94;69.02;95210.69;6166220;23;20237;-83
2023/05/10 08:02:59;;;;;;;1.38;0.45;;;;;;;15.73;68.67;95219.38;6159187;23;20238;-81
2023/05/10 08:05:25;;;;;;;0.40;0.40;;;;;;;15.58;68.05;95227.25;6181192;23;20150;-80
2023/05/10 08:07:50;;;;;;;1.77;0.50;;;;;;;15.70;69.00;95227.59;6183888;23;20155;-79
2023/05/10 08:10:16;;;;;;;1.48;0.55;;;;;;;16.03;68.54;95220.84;6183394;23;20178;-81
2023/05/10 08:12:42;;;;;;;1.70;0.52;;;;;;;15.83;67.80;95222.47;6160360;23;20338;-81
2023/05/10 08:15:08;;;;;;;1.75;0.65;;;;;;;15.85;69.15;95220.47;6185017;23;20151;-80
2023/05/10 08:17:33;;;;;;;1.38;0.55;;;;;;;16.01;68.75;95217.59;6156098;23;20189;-80
2023/05/10 08:19:59;;;;;;;0.70;0.70;;;;;;;15.96;69.07;95230.44;6181106;23;20197;-80
2023/05/10 08:22:24;;;;;;;1.08;0.50;;;;;;;16.25;68.44;95226.03;6156525;23;20683;-80
2023/05/10 08:24:49;;;;;;;1.80;1.38;;;;;;;15.98;67.52;95231.06;6156821;23;20155;-79
2023/05/10 08:27:15;;;;;;;0.52;0.52;;;;;;;15.74;67.95;95231.47;6180019;23;20177;-81
2023/05/10 08:29:40;;;;;;;2.15;0.60;;;;;;;15.92;67.41;95233.63;6181689;23;20201;-81
2023/05/10 08:32:05;;;;;;;0.85;0.55;;;;;;;16.02;67.59;95232.31;6181476;23;20170;-84
2023/05/10 08:35:39;;;;;;;;;;;;;;;;;;;;;
2023/05/10 08:43:10;;;;;;;0.82;0.60;;;;;;;16.03;66.75;95241.78;5922522;24;20559;-84
2023/05/10 08:45:45;;;;;;;0.63;0.57;;;;;;;16.04;68.37;95242.59;5889053;24;20248;-85
2023/05/10 08:48:16;;;;;;;0.70;0.70;;;;;;;15.50;69.04;95241.25;5868212;24;20221;-82
2023/05/10 08:53:41;;;;;;;1.02;0.70;;;;;;;14.98;71.46;95239.63;5867599;24;20246;-82
2023/05/10 08:56:42;;;;;;;0.60;0.60;;;;;;;14.95;70.69;95247.84;5867973;24;20174;-85
2023/05/10 09:02:01;;;;;;;;;;;;;;;;;;;;;
2023/05/10 09:05:10;;;;;;;0.82;0.60;;;;;;;15.47;70.26;95259.94;6156462;23;20273;-82
2023/05/10 09:07:38;;;;;;;3.92;0.70;;;;;;;15.40;69.81;95266.91;6136265;23;20265;-84
2023/05/10 09:10:19;;;;;;;0.52;0.52;;;;;;;15.53;69.37;95263.63;6176239;23;20635;-85
2023/05/10 09:12:54;;;;;;;3.63;0.75;;;;;;;16.13;69.53;95270.28;6189335;23;20690;-85
2023/05/10 09:16:02;;;;;;;4.00;0.82;;;;;;;16.41;66.95;95265.06;6189565;23;20177;-85
2023/05/10 09:23:01;;;;;;;;;;;;;;;;;;;;;
2023/05/10 09:25:52;;;;;;;1.30;0.70;;;;;;;17.06;62.02;95263.91;6212789;23;20245;-83
2023/05/10 09:28:20;;;;;;;1.05;0.57;;;;;;;16.25;64.05;95274.00;6159425;23;20158;-83
2023/05/10 09:33:58;;;;;;;1.55;0.80;;;;;;;16.12;67.16;95277.31;6193332;23;20153;-83
2023/05/10 09:36:23;;;;;;;1.77;0.57;;;;;;;16.06;68.18;95283.31;6162119;23;20623;-83
2023/05/10 09:39:24;;;;;;;3.72;1.20;;;;;;;16.55;66.92;95277.28;6162089;23;20161;-83
2023/05/10 09:46:37;;;;;;;;;;;;;;;;;;;;;
2023/05/10 09:50:11;;;;;;;1.15;0.60;;;;;;;15.88;68.63;95295.22;5938424;24;20246;-86
2023/05/10 09:53:27;;;;;;;0.73;0.73;;;;;;;15.54;68.90;95297.44;5867173;24;20255;-83
2023/05/10 09:56:29;;;;;;;0.75;0.63;;;;;;;15.42;69.72;95305.97;5857414;24;20249;-84
2023/05/10 09:59:10;;;;;;;0.60;0.60;;;;;;;15.38;69.32;95305.53;5868714;24;20170;-85
2023/05/10 10:07:35;;;;;;;0.68;0.60;;;;;;;14.82;65.47;95312.22;5815332;24;20248;-85
2023/05/10 10:10:22;;;;;;;1.65;0.80;;;;;;;15.24;63.35;95314.19;5814542;24;20263;-85
2023/05/10 10:13:17;;;;;;;3.37;0.63;;;;;;;15.44;62.36;95315.25;5814495;24;20250;-83
2023/05/10 10:16:40;;;;;;;;;;;;;;;;;;;;;
2023/05/10 10:22:14;;;;;;;2.17;0.80;;;;;;;15.78;61.35;95321.72;5884513;24;20193;-83
2023/05/10 10:24:46;;;;;;;0.88;0.80;;;;;;;16.02;60.54;95313.50;5995668;23;20161;-87
2023/05/10 10:27:27;;;;;;;0.88;0.80;;;;;;;16.13;61.20;95310.38;6012395;23;20662;-87
2023/05/10 10:30:18;;;;;;;0.65;0.60;;;;;;;16.19;59.94;95305.41;6032866;23;20178;-87
2023/05/10 10:33:55;;;;;;;;;;;;;;;;;;;;;
2023/05/10 10:40:29;;;;;;;1.73;0.82;;;;;;;16.63;57.28;95295.47;5981840;23;20521;-86
2023/05/10 10:47:42;;;;;;;;;;;;;;;;;;;;;
2023/05/10 10:54:56;;;;;;;3.80;0.90;;;;;;;17.23;55.13;95293.25;5953143;24;20187;-87
2023/05/10 11:11:20;;;;;;;1.90;0.98;;;;;;;15.87;59.13;95310.13;5736359;24;20196;-85
2023/05/10 11:47:39;;;;;;;;;;;;;;;;;;;;;
2023/05/10 11:50:15;;;;;;;3.28;0.80;;;;;;;16.56;55.33;95320.84;6064430;23;20267;-86
2023/05/10 12:17:32;;;;;;;3.58;0.90;;;;;;;16.52;56.92;95334.50;6182261;23;20210;-85
2023/05/10 12:21:04;;;;;;;;;;;;;;;;;;;;;
2023/05/10 12:23:29;;;;;;;1.88;0.80;;;;;;;16.95;56.25;95330.00;6008919;23;20281;-79
2023/05/10 12:26:38;;;;;;;;;;;;;;;;;;;;;
2023/05/10 12:30:33;;;;;;;2.22;0.75;;;;;;;17.32;54.07;95333.25;6009754;23;20222;-86
2023/05/10 12:33:03;;;;;;;1.85;1.20;;;;;;;17.34;53.45;95323.38;5960788;23;20155;-88
2023/05/10 12:39:42;;;;;;;4.68;1.30;;;;;;;17.16;52.69;95334.38;5989960;23;20195;-87
2023/05/10 12:49:57;;;;;;;;;;;;;;;;;;;;;
2023/05/10 12:59:11;;;;;;;3.40;0.75;;;;;;;17.56;51.87;95340.63;6038302;23;20165;-84
2023/05/10 13:01:37;;;;;;;1.75;0.70;;;;;;;17.20;51.72;95323.28;6036044;23;20613;-81
2023/05/10 13:04:28;;;;;;;3.78;1.00;;;;;;;17.58;52.19;95330.75;6037132;23;20205;-83
2023/05/10 13:06:58;;;;;;;3.40;1.30;;;;;;;17.94;52.28;95333.13;5944327;24;20177;-80
2023/05/10 13:09:23;;;;;;;3.90;0.90;;;;;;;18.20;51.72;95324.50;5934510;24;20191;-81
2023/05/10 13:12:17;;;;;;;4.30;0.80;;;;;;;18.07;51.91;95329.72;5981028;24;20159;-82
2023/05/10 13:14:42;;;;;;;1.45;0.90;;;;;;;18.01;49.77;95333.94;5971450;24;20163;-79
2023/05/10 13:17:08;;;;;;;2.85;0.90;;;;;;;17.09;52.07;95328.28;5954426;24;20501;-81
2023/05/10 13:19:33;;;;;;;0.93;0.77;;;;;;;18.01;51.39;95335.75;6048202;23;20678;-81
2023/05/10 13:21:58;;;;;;;3.90;1.10;;;;;;;17.62;51.49;95320.66;6093347;23;20412;-81
2023/05/10 13:24:41;;;;;;;1.10;0.75;;;;;;;18.20;49.83;95321.88;6045649;23;20168;-82
2023/05/10 13:27:06;;;;;;;1.95;0.82;;;;;;;18.24;49.44;95323.06;6070904;23;20160;-79
2023/05/10 13:29:31;;;;;;;1.35;1.00;;;;;;;18.27;50.04;95329.75;6067950;23;20215;-80
2023/05/10 13:31:57;;;;;;;5.03;1.10;;;;;;;18.63;50.20;95330.16;6068888;23;20168;-81
2023/05/10 13:34:22;;;;;;;1.52;0.70;;;;;;;17.81;50.43;95328.63;6093453;23;20473;-79
2023/05/10 13:36:48;;;;;;;1.33;0.70;;;;;;;18.16;50.44;95322.44;6069297;23;20233;-83
2023/05/10 13:39:13;;;;;;;1.48;0.77;;;;;;;18.06;50.76;95330.72;6095411;23;20263;-83
2023/05/10 13:41:39;;;;;;;4.40;0.80;;;;;;;17.94;51.33;95325.25;6095704;23;20415;-81
2023/05/10 13:44:04;;;;;;;1.58;0.80;;;;;;;17.80;50.85;95324.38;6145701;23;20169;-79
2023/05/10 13:46:30;;;;;;;0.80;0.80;;;;;;;17.85;50.54;95323.81;6133114;23;20593;-83
2023/05/10 13:48:56;;;;;;;1.27;0.95;;;;;;;17.93;50.89;95323.59;6159379;23;20585;-83
2023/05/10 13:51:31;;;;;;;2.70;0.73;;;;;;;17.68;51.87;95318.06;6134946;23;20200;-84
2023/05/10 15:58:57;;;;;;;1.90;0.90;;;;;;;16.21;51.79;95324.34;6125557;23;20198;-86
2023/05/10 16:01:23;;;;;;;0.60;0.50;;;;;;;16.09;52.89;95324.88;6135633;23;20159;-84
2023/05/10 16:03:48;;;;;;;2.35;0.70;;;;;;;15.91;53.67;95319.25;6159148;23;20764;-85
2023/05/10 16:06:13;;;;;;;1.83;0.60;;;;;;;15.78;53.58;95321.72;6135528;23;20166;-84
2023/05/10 16:08:41;;;;;;;2.00;1.08;;;;;;;15.64;54.20;95322.56;6160306;23;20620;-85
2023/05/10 16:11:06;;;;;;;1.10;0.68;;;;;;;15.42;55.04;95322.47;6159903;23;20178;-85
2023/05/10 16:13:32;;;;;;;1.35;0.60;;;;;;;15.31;55.49;95322.94;6134997;23;20169;-86
2023/05/10 16:15:57;;;;;;;1.85;0.80;;;;;;;15.37;55.46;95319.63;6134577;23;20162;-85
2023/05/10 16:18:23;;;;;;;3.78;1.00;;;;;;;15.41;56.56;95333.13;6134318;23;20163;-84
2023/05/10 16:20:48;;;;;;;2.33;0.70;;;;;;;15.56;56.80;95329.50;6133490;23;20179;-84
2023/05/10 16:23:14;;;;;;;0.77;0.73;;;;;;;15.36;57.06;95333.66;6133623;23;20182;-85
2023/05/10 16:25:39;;;;;;;2.17;0.88;;;;;;;15.35;56.60;95316.34;6158467;23;20621;-86
2023/05/10 16:28:05;;;;;;;3.65;1.33;;;;;;;15.50;56.42;95319.75;6161120;23;20266;-85
2023/05/10 16:30:31;;;;;;;0.95;0.70;;;;;;;15.68;57.25;95336.91;6161306;23;20213;-85
2023/05/10 16:32:57;;;;;;;2.13;0.80;;;;;;;15.62;57.18;95337.63;6160266;23;20237;-85
2023/05/10 16:35:22;;;;;;;1.85;0.60;;;;;;;15.61;58.11;95336.00;6134136;23;20247;-80
2023/05/10 16:37:56;;;;;;;0.95;0.70;;;;;;;15.53;57.32;95345.56;6157149;23;20161;-85
2023/05/10 16:40:22;;;;;;;2.00;0.90;;;;;;;15.63;58.03;95332.22;6157379;23;20182;-85
2023/05/10 16:42:48;;;;;;;2.83;0.80;;;;;;;15.68;57.01;95340.31;6133468;23;20274;-86
2023/05/10 16:45:15;;;;;;;0.90;0.70;;;;;;;15.82;58.41;95338.69;6156837;23;20178;-85
2023/05/10 16:47:40;;;;;;;2.35;0.80;;;;;;;15.70;56.38;95345.38;6156921;23;20158;-85
2023/05/10 16:50:06;;;;;;;2.42;0.80;;;;;;;15.53;57.80;95336.88;6132352;23;20760;-86